Time;durP1;ratioP1;P1;durP2;ratioP2;P2;SDS_P1;SDS_P2;PMS_P1;PMS_P2;Temp;Humidity;BMP_temperature;BMP_pressure;BME280_temperature;BME280_humidity;BME280_pressure;Samples;Min_cycle;Max_cycle;Signal;HPM_P1;HPM_P2
2023/09/26 00:00:08;;;;;;;6.85;6.00;;;19.40;99.90;;;;;;5015852;28;20077;-81
2023/09/26 00:02:35;;;;;;;11.27;6.38;;;19.40;99.90;;;;;;5015909;28;20509;-82
2023/09/26 00:05:03;;;;;;;8.32;6.03;;;19.40;99.90;;;;;;5015836;28;20052;-81
2023/09/26 00:07:28;;;;;;;7.45;6.40;;;19.30;99.90;;;;;;5015839;28;20508;-81
2023/09/26 00:09:55;;;;;;;7.60;6.68;;;19.20;99.90;;;;;;5015626;28;20045;-81
2023/09/26 00:12:21;;;;;;;7.60;6.72;;;19.20;99.90;;;;;;5015762;28;20125;-81
2023/09/26 00:14:47;;;;;;;7.80;6.72;;;19.20;99.90;;;;;;5015637;28;20173;-81
2023/09/26 00:17:13;;;;;;;9.75;7.68;;;;;;;;;;4999299;28;20045;-80
2023/09/26 00:19:38;;;;;;;11.60;8.02;;;19.10;99.90;;;;;;4999112;28;20521;-81
2023/09/26 00:22:04;;;;;;;9.43;6.28;;;19.20;99.90;;;;;;5015645;28;20126;-80
2023/09/26 00:24:30;;;;;;;9.52;6.35;;;19.20;99.90;;;;;;4999327;28;20034;-80
2023/09/26 00:26:57;;;;;;;9.85;6.82;;;;;;;;;;5015658;28;20516;-80
2023/09/26 00:29:23;;;;;;;12.50;8.13;;;19.00;99.90;;;;;;5016129;28;20041;-81
2023/09/26 00:31:51;;;;;;;8.63;7.35;;;19.10;99.90;;;;;;5016168;28;20077;-81
2023/09/26 00:34:17;;;;;;;9.80;6.45;;;19.10;99.90;;;;;;5016374;28;20072;-81
2023/09/26 00:36:44;;;;;;;10.13;7.55;;;19.10;99.90;;;;;;5015718;28;20560;-80
2023/09/26 00:39:09;;;;;;;10.40;7.25;;;19.20;99.90;;;;;;5016042;28;20073;-81
2023/09/26 00:41:35;;;;;;;10.88;8.07;;;19.00;99.90;;;;;;5016121;28;20052;-81
2023/09/26 00:44:01;;;;;;;12.52;7.78;;;19.10;99.90;;;;;;5016286;28;20044;-81
2023/09/26 00:46:27;;;;;;;13.38;7.70;;;19.00;99.90;;;;;;5015310;28;20049;-81
2023/09/26 00:48:53;;;;;;;9.50;7.50;;;19.10;99.90;;;;;;4999468;28;20041;-81
2023/09/26 00:51:19;;;;;;;11.77;8.07;;;;;;;;;;5015983;28;20069;-80
2023/09/26 00:53:45;;;;;;;10.88;7.53;;;19.20;99.90;;;;;;5016117;28;20041;-80
2023/09/26 00:56:10;;;;;;;11.18;8.00;;;18.90;99.90;;;;;;5016316;28;20045;-81
2023/09/26 00:58:38;;;;;;;11.13;7.85;;;18.80;99.90;;;;;;5016092;28;20037;-80
2023/09/26 01:01:05;;;;;;;9.25;7.00;;;18.80;99.90;;;;;;5016218;28;20065;-81
2023/09/26 01:03:31;;;;;;;10.93;8.25;;;19.00;99.90;;;;;;5016571;28;20157;-80
2023/09/26 01:05:58;;;;;;;9.57;8.13;;;18.80;99.90;;;;;;5015579;28;20529;-80
2023/09/26 01:08:24;;;;;;;12.98;8.38;;;18.80;99.90;;;;;;4999933;28;20045;-80
2023/09/26 01:10:50;;;;;;;16.58;8.65;;;18.60;99.90;;;;;;5000530;28;20464;-81
2023/09/26 01:13:15;;;;;;;10.65;8.00;;;18.70;99.90;;;;;;5016650;28;20524;-81
2023/09/26 01:15:43;;;;;;;11.05;8.95;;;;;;;;;;5000342;28;20475;-81
2023/09/26 01:18:11;;;;;;;10.05;7.88;;;19.00;99.90;;;;;;5016724;28;20509;-79
2023/09/26 01:20:44;;;;;;;9.80;7.70;;;18.70;99.90;;;;;;5017164;28;20048;-80
2023/09/26 01:23:11;;;;;;;9.38;8.38;;;18.70;99.90;;;;;;5017174;28;20044;-81
2023/09/26 01:25:38;;;;;;;9.02;7.70;;;18.80;99.90;;;;;;5000511;28;20049;-80
2023/09/26 01:28:08;;;;;;;9.98;8.65;;;18.90;99.90;;;;;;5016764;28;20038;-81
2023/09/26 01:30:40;;;;;;;13.38;8.75;;;18.70;99.90;;;;;;5016938;28;20057;-80
2023/09/26 01:33:08;;;;;;;10.77;8.93;;;18.80;99.90;;;;;;5017078;28;20042;-81
2023/09/26 01:35:34;;;;;;;12.02;8.60;;;18.80;99.90;;;;;;5017272;28;20053;-81
2023/09/26 01:38:00;;;;;;;11.25;9.43;;;18.50;99.90;;;;;;5017933;28;20296;-81
2023/09/26 01:40:25;;;;;;;10.48;8.77;;;18.70;99.90;;;;;;5020717;28;20041;-82
2023/09/26 01:42:51;;;;;;;11.43;8.60;;;18.50;99.90;;;;;;5029809;28;20493;-81
2023/09/26 01:45:17;;;;;;;13.98;8.48;;;18.60;99.90;;;;;;5031726;28;20044;-81
2023/09/26 01:47:47;;;;;;;9.35;8.43;;;18.30;99.90;;;;;;5015210;28;20101;-81
2023/09/26 01:50:17;;;;;;;11.00;7.93;;;18.40;99.90;;;;;;5024138;28;20528;-80
2023/09/26 01:52:44;;;;;;;9.45;8.05;;;18.60;99.90;;;;;;5015427;28;20046;-81
2023/09/26 01:55:18;;;;;;;10.02;8.63;;;18.30;99.90;;;;;;5015533;28;20038;-81
2023/09/26 01:57:43;;;;;;;10.30;8.85;;;18.30;99.90;;;;;;5015363;28;20490;-82
2023/09/26 02:00:10;;;;;;;9.23;8.32;;;18.50;99.90;;;;;;5015771;28;20038;-80
2023/09/26 02:02:41;;;;;;;10.32;8.40;;;18.20;99.90;;;;;;5016351;28;20038;-80
2023/09/26 02:05:08;;;;;;;12.02;8.93;;;18.30;99.90;;;;;;5015510;28;20042;-80
2023/09/26 02:07:33;;;;;;;10.48;8.60;;;18.30;99.90;;;;;;5015977;28;20034;-80
2023/09/26 02:09:59;;;;;;;11.82;8.70;;;18.10;99.90;;;;;;4999411;28;20042;-79
2023/09/26 02:12:25;;;;;;;10.23;8.05;;;18.20;99.90;;;;;;5015973;28;20042;-80
2023/09/26 02:14:50;;;;;;;10.20;7.50;;;18.30;99.90;;;;;;5000640;28;20038;-81
2023/09/26 02:17:17;;;;;;;8.77;7.82;;;;;;;;;;5016005;28;20448;-79
2023/09/26 02:19:42;;;;;;;11.65;9.45;;;18.00;99.90;;;;;;5017943;28;20409;-79
2023/09/26 02:22:08;;;;;;;14.32;9.75;;;18.00;99.90;;;;;;5005411;28;20134;-79
2023/09/26 02:24:34;;;;;;;10.13;8.85;;;18.10;99.90;;;;;;5020502;28;20092;-79
2023/09/26 02:26:59;;;;;;;10.73;8.45;;;18.30;99.90;;;;;;5022175;28;20121;-80
2023/09/26 02:29:28;;;;;;;12.88;10.15;;;18.00;99.90;;;;;;5024246;28;20108;-79
2023/09/26 02:31:53;;;;;;;13.35;10.10;;;18.20;99.90;;;;;;5026503;28;20045;-79
2023/09/26 02:34:19;;;;;;;12.38;9.35;;;18.00;99.90;;;;;;5012103;28;20033;-80
2023/09/26 02:36:45;;;;;;;11.65;9.10;;;;;;;;;;5024869;28;20053;-80
2023/09/26 02:39:11;;;;;;;13.15;9.93;;;18.20;99.90;;;;;;5029578;28;20049;-79
2023/09/26 02:41:36;;;;;;;14.73;9.90;;;18.30;99.90;;;;;;5014516;28;20489;-79
2023/09/26 02:44:03;;;;;;;12.52;9.52;;;18.20;99.90;;;;;;5029979;28;20040;-79
2023/09/26 02:46:29;;;;;;;13.88;10.45;;;18.00;99.90;;;;;;5013357;28;20050;-79
2023/09/26 02:48:55;;;;;;;11.38;9.88;;;18.20;99.90;;;;;;5011402;28;20060;-80
2023/09/26 02:51:20;;;;;;;11.55;10.38;;;18.00;99.90;;;;;;5028783;28;20037;-80
2023/09/26 02:53:46;;;;;;;12.13;9.77;;;18.00;99.90;;;;;;5025587;28;20038;-79
2023/09/26 02:56:12;;;;;;;13.25;9.98;;;;;;;;;;5021093;28;20098;-80
2023/09/26 02:58:37;;;;;;;11.45;9.60;;;18.20;99.90;;;;;;5020378;28;20501;-80
2023/09/26 03:01:04;;;;;;;14.70;10.40;;;18.00;99.90;;;;;;5019669;28;20045;-79
2023/09/26 03:03:30;;;;;;;11.80;10.20;;;18.10;99.90;;;;;;5019639;28;20073;-80
2023/09/26 03:05:56;;;;;;;14.68;11.40;;;18.10;99.90;;;;;;5003976;28;20045;-79
2023/09/26 03:08:22;;;;;;;14.10;10.48;;;18.10;99.90;;;;;;5020014;28;20595;-79
2023/09/26 03:10:48;;;;;;;12.52;11.05;;;18.00;99.90;;;;;;5018616;28;20053;-80
2023/09/26 03:13:13;;;;;;;14.43;10.88;;;18.10;99.90;;;;;;5003307;28;20038;-80
2023/09/26 03:15:39;;;;;;;12.40;10.23;;;;;;;;;;5023347;28;20129;-81
2023/09/26 03:18:06;;;;;;;13.40;11.75;;;17.90;99.90;;;;;;5018513;28;20042;-80
2023/09/26 03:20:31;;;;;;;14.40;10.55;;;18.10;99.90;;;;;;5017983;28;20053;-79
2023/09/26 03:22:57;;;;;;;12.07;10.77;;;17.90;99.90;;;;;;5018695;28;20038;-79
2023/09/26 03:25:23;;;;;;;15.18;10.95;;;17.80;99.90;;;;;;5018647;28;20041;-80
2023/09/26 03:27:51;;;;;;;12.23;10.75;;;17.90;99.90;;;;;;5002744;28;20053;-79
2023/09/26 03:30:17;;;;;;;14.68;11.73;;;18.00;99.90;;;;;;5019194;28;20049;-80
2023/09/26 03:32:43;;;;;;;13.55;10.45;;;17.80;99.90;;;;;;5020185;28;20071;-80
2023/09/26 03:35:09;;;;;;;17.77;11.45;;;17.70;99.90;;;;;;5018429;28;20517;-80
2023/09/26 03:37:36;;;;;;;10.82;9.73;;;18.00;99.90;;;;;;5002006;28;20041;-80
2023/09/26 03:40:02;;;;;;;13.63;11.27;;;;;;;;;;5018063;28;20034;-80
2023/09/26 03:42:28;;;;;;;11.50;10.13;;;;;;;;;;5017586;28;20497;-79
2023/09/26 03:44:53;;;;;;;12.25;9.75;;;17.90;99.90;;;;;;5018066;28;20057;-79
2023/09/26 03:47:19;;;;;;;13.35;10.48;;;;;;;;;;5001938;28;20045;-79
2023/09/26 03:49:45;;;;;;;11.77;10.55;;;17.70;99.90;;;;;;5017182;28;20045;-80
2023/09/26 03:52:11;;;;;;;12.85;10.82;;;17.90;99.90;;;;;;5001220;28;20489;-80
2023/09/26 03:54:37;;;;;;;12.63;10.20;;;;;;;;;;5001241;28;20034;-79
2023/09/26 03:57:04;;;;;;;11.93;10.02;;;17.70;99.90;;;;;;5016768;28;20109;-80
2023/09/26 03:59:30;;;;;;;11.27;9.73;;;17.80;99.90;;;;;;5018131;28;20045;-80
2023/09/26 04:01:55;;;;;;;11.63;9.88;;;17.60;99.90;;;;;;5001821;28;20030;-80
2023/09/26 04:04:21;;;;;;;13.18;10.05;;;17.60;99.90;;;;;;5017657;28;20034;-79
2023/09/26 04:06:47;;;;;;;11.32;9.75;;;;;;;;;;5017482;28;20038;-80
2023/09/26 04:09:14;;;;;;;15.98;11.07;;;17.60;99.90;;;;;;5000801;28;20077;-79
2023/09/26 04:11:39;;;;;;;12.30;9.52;;;18.00;99.90;;;;;;5001803;28;20040;-80
2023/09/26 04:14:05;;;;;;;13.15;10.43;;;17.60;99.90;;;;;;5001965;28;20136;-80
2023/09/26 04:16:31;;;;;;;11.63;10.43;;;17.70;99.90;;;;;;5019489;28;20053;-80
2023/09/26 04:18:57;;;;;;;13.82;11.13;;;17.60;99.90;;;;;;5006608;28;20062;-79
2023/09/26 04:21:22;;;;;;;12.02;10.57;;;17.90;99.90;;;;;;5014059;28;20034;-78
2023/09/26 04:23:48;;;;;;;13.32;10.52;;;17.90;99.90;;;;;;5009656;28;20060;-78
2023/09/26 04:26:15;;;;;;;13.70;11.50;;;17.90;99.90;;;;;;5017175;28;20038;-79
2023/09/26 04:28:45;;;;;;;14.88;10.98;;;18.10;99.90;;;;;;5020489;28;20065;-79
2023/09/26 04:31:12;;;;;;;13.00;10.70;;;18.10;99.90;;;;;;5027334;28;20077;-80
2023/09/26 04:33:38;;;;;;;12.20;10.25;;;;;;;;;;5033439;28;20037;-79
2023/09/26 04:36:04;;;;;;;12.82;10.25;;;;;;;;;;5034417;28;20076;-80
2023/09/26 04:38:30;;;;;;;12.57;10.70;;;;;;;;;;5032432;28;20473;-80
2023/09/26 04:40:56;;;;;;;15.50;11.98;;;17.90;99.90;;;;;;5013841;28;20037;-80
2023/09/26 04:43:21;;;;;;;12.27;10.43;;;18.10;99.90;;;;;;5016905;28;20042;-80
2023/09/26 04:45:47;;;;;;;12.63;11.32;;;18.20;99.90;;;;;;5001993;28;20038;-79
2023/09/26 04:48:13;;;;;;;12.70;10.52;;;18.20;99.90;;;;;;5026072;28;20042;-80
2023/09/26 04:50:39;;;;;;;11.82;10.50;;;18.20;99.90;;;;;;5031331;28;20042;-79
2023/09/26 04:53:05;;;;;;;15.05;10.85;;;;;;;;;;5014638;28;20520;-80
2023/09/26 04:55:31;;;;;;;12.52;10.48;;;17.80;99.90;;;;;;5031273;28;20057;-79
2023/09/26 04:57:56;;;;;;;11.63;10.30;;;17.90;99.90;;;;;;5023951;28;20092;-80
2023/09/26 05:00:22;;;;;;;12.10;10.85;;;17.70;99.90;;;;;;5014979;28;20056;-80
2023/09/26 05:02:50;;;;;;;15.07;11.73;;;17.70;99.90;;;;;;5014184;28;20038;-79
2023/09/26 05:05:16;;;;;;;12.43;10.60;;;17.70;99.90;;;;;;4998723;28;20050;-79
2023/09/26 05:07:43;;;;;;;13.18;10.50;;;17.90;99.90;;;;;;5014484;28;20049;-80
2023/09/26 05:10:11;;;;;;;15.38;12.00;;;17.90;99.90;;;;;;5015290;28;20053;-80
2023/09/26 05:12:40;;;;;;;16.48;11.60;;;17.70;99.90;;;;;;5017610;28;20056;-80
2023/09/26 05:15:13;;;;;;;12.25;10.57;;;17.70;99.90;;;;;;4998306;28;20049;-79
2023/09/26 05:17:50;;;;;;;15.60;11.75;;;17.90;99.90;;;;;;5015155;28;20527;-80
2023/09/26 05:20:17;;;;;;;13.85;11.90;;;17.60;99.90;;;;;;5014404;28;20049;-80
2023/09/26 05:22:44;;;;;;;16.15;12.02;;;17.60;99.90;;;;;;5013884;28;20030;-79
2023/09/26 05:25:11;;;;;;;14.80;12.38;;;;;;;;;;5013787;28;20046;-79
2023/09/26 05:27:38;;;;;;;15.40;11.43;;;17.50;99.90;;;;;;5013383;28;20554;-78
2023/09/26 05:30:05;;;;;;;15.20;11.90;;;17.80;99.90;;;;;;5013846;28;20128;-79
2023/09/26 05:32:31;;;;;;;17.77;12.25;;;17.80;99.90;;;;;;5014074;28;20076;-80
2023/09/26 05:34:57;;;;;;;15.30;11.10;;;;;;;;;;5014221;28;20056;-79
2023/09/26 05:37:23;;;;;;;17.20;11.82;;;;;;;;;;5014191;28;20080;-79
2023/09/26 05:39:49;;;;;;;15.70;13.25;;;;;;;;;;5014231;28;20090;-80
2023/09/26 05:42:15;;;;;;;14.80;11.98;;;;;;;;;;5014173;28;20030;-79
2023/09/26 05:44:41;;;;;;;14.45;12.10;;;17.80;99.90;;;;;;4998219;28;20516;-79
2023/09/26 05:47:06;;;;;;;15.60;12.50;;;17.90;99.90;;;;;;4997818;28;20030;-79
2023/09/26 05:49:32;;;;;;;14.35;11.27;;;17.80;99.90;;;;;;5014055;28;20041;-80
2023/09/26 05:51:58;;;;;;;16.35;12.98;;;;;;;;;;5013513;28;20180;-79
2023/09/26 05:54:24;;;;;;;15.05;12.65;;;;;;;;;;5013766;28;20558;-79
2023/09/26 05:56:49;;;;;;;16.20;12.20;;;17.70;99.90;;;;;;5014672;28;20135;-80
2023/09/26 05:59:15;;;;;;;15.63;12.82;;;17.90;99.90;;;;;;4997895;28;20038;-78
2023/09/26 06:01:40;;;;;;;15.80;13.07;;;18.00;99.90;;;;;;4998213;28;20038;-80
2023/09/26 06:04:07;;;;;;;14.85;13.00;;;;;;;;;;5014877;28;20037;-80
2023/09/26 06:06:33;;;;;;;18.67;12.95;;;17.70;99.90;;;;;;4998129;28;20045;-79
2023/09/26 06:08:59;;;;;;;21.58;14.18;;;17.90;99.90;;;;;;4998252;28;20053;-79
2023/09/26 06:11:25;;;;;;;17.92;13.82;;;;;;;;;;4998725;28;20406;-79
2023/09/26 06:13:54;;;;;;;14.82;13.20;;;;;;;;;;5015194;28;20046;-79
2023/09/26 06:16:19;;;;;;;19.27;12.95;;;18.10;99.90;;;;;;5015688;28;20045;-79
2023/09/26 06:18:47;;;;;;;23.20;12.55;;;18.30;99.90;;;;;;5014596;28;20038;-79
2023/09/26 06:21:14;;;;;;;18.90;13.60;;;;;;;;;;5016235;28;20042;-80
2023/09/26 06:23:40;;;;;;;17.48;14.30;;;18.20;99.90;;;;;;5015663;28;20097;-78
2023/09/26 06:26:07;;;;;;;15.25;13.10;;;18.60;99.90;;;;;;5015740;28;20084;-79
2023/09/26 06:28:33;;;;;;;16.10;13.25;;;18.10;99.90;;;;;;5016121;28;20456;-79
2023/09/26 06:31:06;;;;;;;17.05;12.77;;;18.40;99.90;;;;;;5015337;28;20680;-79
2023/09/26 06:33:32;;;;;;;;;;;19.30;99.90;;;;;;5016051;28;20042;-79
2023/09/26 06:35:58;;;;;;;17.38;13.10;;;18.70;99.90;;;;;;5014947;28;19932;-80
2023/09/26 06:38:24;;;;;;;18.85;12.57;;;;;;;;;;5015292;28;20034;-79
2023/09/26 06:41:04;;;;;;;16.92;13.40;;;18.40;99.90;;;;;;5015946;28;20069;-79
2023/09/26 06:43:30;;;;;;;14.18;12.18;;;18.70;99.90;;;;;;4999116;28;20568;-79
2023/09/26 06:45:56;;;;;;;15.57;12.57;;;18.50;99.90;;;;;;5000127;28;20165;-80
2023/09/26 06:48:22;;;;;;;17.65;12.48;;;;;;;;;;5021537;28;20142;-80
2023/09/26 06:50:48;;;;;;;15.90;11.75;;;;;;;;;;5017112;28;20531;-79
2023/09/26 06:53:14;;;;;;;20.63;12.98;;;18.90;99.90;;;;;;5020981;28;20045;-79
2023/09/26 06:55:40;;;;;;;17.10;11.98;;;;;;;;;;5030591;28;20044;-80
2023/09/26 06:58:06;;;;;;;16.27;12.65;;;19.00;99.90;;;;;;5029836;28;20395;-79
2023/09/26 07:00:31;;;;;;;15.10;11.68;;;18.80;99.90;;;;;;5022099;28;20410;-80
2023/09/26 07:02:57;;;;;;;17.77;12.43;;;18.90;99.90;;;;;;5013801;28;20034;-79
2023/09/26 07:05:26;;;;;;;16.08;12.35;;;19.20;99.90;;;;;;5015311;28;20041;-80
2023/09/26 07:07:52;;;;;;;12.52;11.13;;;19.00;99.90;;;;;;5017392;28;20562;-80
2023/09/26 07:10:18;;;;;;;15.73;11.55;;;19.00;99.90;;;;;;5017346;28;20054;-78
2023/09/26 07:12:44;;;;;;;15.77;12.18;;;19.00;99.90;;;;;;5001141;28;20494;-79
2023/09/26 07:15:13;;;;;;;14.13;11.60;;;19.10;99.90;;;;;;5017690;28;20045;-79
2023/09/26 07:17:39;;;;;;;16.50;12.65;;;19.20;99.90;;;;;;5017430;28;20042;-80
2023/09/26 07:20:13;;;;;;;14.52;11.68;;;19.20;99.90;;;;;;5017115;28;20092;-80
2023/09/26 07:22:42;;;;;;;13.32;11.85;;;19.20;99.90;;;;;;5000776;28;20567;-80
2023/09/26 07:25:09;;;;;;;18.05;12.35;;;19.30;99.90;;;;;;5017027;28;20045;-79
2023/09/26 07:27:35;;;;;;;18.25;12.77;;;19.20;99.90;;;;;;5017799;28;20092;-80
2023/09/26 07:30:01;;;;;;;13.05;11.60;;;19.40;99.90;;;;;;5029567;28;20053;-79
2023/09/26 07:32:27;;;;;;;14.63;12.23;;;19.40;99.90;;;;;;5038752;28;20038;-80
2023/09/26 07:34:53;;;;;;;15.45;11.80;;;;;;;;;;5021609;28;20556;-80
2023/09/26 07:37:20;;;;;;;17.05;12.30;;;19.40;99.90;;;;;;5010106;28;20527;-80
2023/09/26 07:39:51;;;;;;;17.15;13.02;;;19.00;99.90;;;;;;5020545;28;20128;-80
2023/09/26 07:42:18;;;;;;;17.45;12.95;;;19.40;99.90;;;;;;5020154;28;20557;-79
2023/09/26 07:44:44;;;;;;;16.73;12.90;;;19.50;99.90;;;;;;5039092;22;20473;-70
2023/09/26 07:47:09;;;;;;;16.48;12.10;;;19.40;99.90;;;;;;5014525;28;20038;-71
2023/09/26 07:49:35;;;;;;;13.35;11.38;;;19.40;99.90;;;;;;5013199;28;20041;-70
2023/09/26 07:52:00;;;;;;;14.55;11.85;;;19.40;99.90;;;;;;4997205;28;20042;-71
2023/09/26 07:54:26;;;;;;;17.92;12.68;;;19.50;99.90;;;;;;5014532;28;20045;-71
2023/09/26 07:56:52;;;;;;;15.73;11.63;;;19.60;99.90;;;;;;4997011;28;20049;-71
2023/09/26 07:59:18;;;;;;;13.57;11.18;;;;;;;;;;4996610;28;20049;-70
2023/09/26 08:01:44;;;;;;;14.48;11.45;;;;;;;;;;4996616;28;20042;-70
2023/09/26 08:04:10;;;;;;;16.95;12.95;;;;;;;;;;4980697;28;20048;-71
2023/09/26 08:06:35;;;;;;;13.80;12.30;;;20.10;99.90;;;;;;4996947;28;20429;-71
2023/09/26 08:09:01;;;;;;;13.50;11.80;;;20.10;99.90;;;;;;5014015;28;20033;-70
2023/09/26 08:11:27;;;;;;;13.85;11.70;;;20.00;99.90;;;;;;4996494;28;20073;-71
2023/09/26 08:13:54;;;;;;;13.45;11.13;;;19.80;99.90;;;;;;4996603;28;20041;-71
2023/09/26 08:16:20;;;;;;;13.20;10.80;;;20.00;99.90;;;;;;5014101;28;20038;-71
2023/09/26 08:18:46;;;;;;;14.73;11.43;;;20.00;99.90;;;;;;4996379;28;20108;-70
2023/09/26 08:21:11;;;;;;;14.82;12.00;;;19.90;99.90;;;;;;4996583;28;20033;-70
2023/09/26 08:23:37;;;;;;;14.02;11.52;;;19.80;99.90;;;;;;4980165;28;20084;-70
2023/09/26 08:26:06;;;;;;;15.18;11.15;;;20.10;99.90;;;;;;4996713;28;20520;-70
2023/09/26 08:28:32;;;;;;;13.73;11.50;;;20.10;99.90;;;;;;4996009;28;20046;-70
2023/09/26 08:31:07;;;;;;;17.15;11.57;;;20.00;99.90;;;;;;4996290;28;20085;-71
2023/09/26 08:33:33;;;;;;;12.32;10.40;;;19.90;99.90;;;;;;4996161;28;20115;-71
2023/09/26 08:35:59;;;;;;;16.70;11.18;;;20.20;99.90;;;;;;4996066;28;20042;-71
2023/09/26 08:38:25;;;;;;;13.75;10.82;;;;;;;;;;5013676;28;20037;-70
2023/09/26 08:40:51;;;;;;;14.52;10.63;;;20.50;99.90;;;;;;4996137;28;20429;-70
2023/09/26 08:43:25;;;;;;;13.32;10.43;;;20.30;99.90;;;;;;4995838;28;20213;-71
2023/09/26 08:45:52;;;;;;;15.77;11.32;;;20.50;99.90;;;;;;4996249;28;20038;-71
2023/09/26 08:48:18;;;;;;;17.40;10.48;;;21.90;99.90;;;;;;4996572;28;20064;-71
2023/09/26 08:50:44;;;;;;;14.45;11.35;;;20.70;99.90;;;;;;4995715;28;20127;-71
2023/09/26 08:53:10;;;;;;;17.30;11.10;;;20.80;99.90;;;;;;4995691;28;20478;-70
2023/09/26 08:55:38;;;;;;;13.68;9.98;;;20.70;99.90;;;;;;4995502;28;20057;-71
2023/09/26 08:58:04;;;;;;;12.52;10.35;;;20.60;99.90;;;;;;4995572;28;20046;-71
2023/09/26 09:00:30;;;;;;;16.45;10.48;;;20.70;99.90;;;;;;4997241;28;20069;-71
2023/09/26 09:02:56;;;;;;;13.50;10.38;;;20.80;99.90;;;;;;4998620;28;20041;-71
2023/09/26 09:05:22;;;;;;;13.45;9.38;;;20.60;99.90;;;;;;4997269;28;20513;-71
2023/09/26 09:07:49;;;;;;;12.68;10.55;;;;;;;;;;4995713;28;20124;-71
2023/09/26 09:10:18;;;;;;;12.25;9.60;;;20.90;99.90;;;;;;4995250;28;20482;-70
2023/09/26 09:12:50;;;;;;;12.95;9.52;;;21.00;99.90;;;;;;4995518;28;20049;-71
2023/09/26 09:15:15;;;;;;;12.02;10.73;;;21.20;99.90;;;;;;4979478;28;20494;-70
2023/09/26 09:17:42;;;;;;;12.40;9.25;;;21.40;99.90;;;;;;4996218;28;20129;-71
2023/09/26 09:20:09;;;;;;;14.52;9.68;;;21.60;99.90;;;;;;5011916;28;20106;-69
2023/09/26 09:22:35;;;;;;;13.05;9.68;;;21.60;99.90;;;;;;5030621;28;20041;-71
2023/09/26 09:25:02;;;;;;;11.57;8.52;;;21.30;99.90;;;;;;4994602;28;20107;-70
2023/09/26 09:27:33;;;;;;;13.75;8.93;;;21.60;99.90;;;;;;5013860;28;20080;-70
2023/09/26 09:30:07;;;;;;;11.73;10.23;;;21.40;99.90;;;;;;5013004;28;20084;-71
2023/09/26 09:32:33;;;;;;;9.50;8.20;;;21.60;99.90;;;;;;5013319;28;20037;-71
2023/09/26 09:34:59;;;;;;;14.43;8.70;;;21.60;99.90;;;;;;4995405;28;20125;-71
2023/09/26 09:37:25;;;;;;;11.90;9.13;;;21.80;99.90;;;;;;4979345;28;20124;-70
2023/09/26 09:39:51;;;;;;;12.13;8.95;;;21.80;99.90;;;;;;4995039;28;20422;-70
2023/09/26 09:42:17;;;;;;;10.75;8.70;;;22.00;99.90;;;;;;4995097;28;20045;-70
2023/09/26 09:44:42;;;;;;;13.27;9.52;;;21.90;99.90;;;;;;4994961;28;20041;-72
2023/09/26 09:47:11;;;;;;;11.90;9.57;;;22.00;99.90;;;;;;4995062;28;20041;-70
2023/09/26 09:49:44;;;;;;;14.25;9.30;;;21.90;99.90;;;;;;4994816;28;20050;-71
2023/09/26 09:52:09;;;;;;;;;;;22.20;99.90;;;;;;5013318;28;20041;-71
2023/09/26 09:54:39;;;;;;;12.65;9.15;;;22.20;99.90;;;;;;5012754;28;19917;-71
2023/09/26 09:57:11;;;;;;;12.63;9.05;;;22.50;99.90;;;;;;4995084;28;20074;-71
2023/09/26 09:59:38;;;;;;;9.88;8.32;;;22.20;99.90;;;;;;5011990;28;20557;-70
2023/09/26 10:02:09;;;;;;;10.60;7.53;;;22.60;99.90;;;;;;4994650;28;20046;-71
2023/09/26 10:04:37;;;;;;;10.13;8.05;;;22.80;99.90;;;;;;4978072;28;20124;-71
2023/09/26 10:07:03;;;;;;;12.05;8.05;;;23.20;99.90;;;;;;5010761;28;20049;-70
2023/09/26 10:09:31;;;;;;;12.07;8.00;;;23.00;99.90;;;;;;4977811;28;20487;-71
2023/09/26 10:11:59;;;;;;;10.77;7.45;;;22.90;99.90;;;;;;5011811;28;20048;-70
2023/09/26 10:14:28;;;;;;;9.43;6.90;;;23.00;99.90;;;;;;5011846;28;20030;-71
2023/09/26 10:16:55;;;;;;;9.93;7.15;;;23.00;99.90;;;;;;4993991;28;20042;-71
2023/09/26 10:19:23;;;;;;;10.43;6.93;;;22.90;99.90;;;;;;4993946;28;20042;-71
2023/09/26 10:21:49;;;;;;;14.30;7.63;;;23.10;99.90;;;;;;4994038;28;20096;-71
2023/09/26 10:24:16;;;;;;;10.45;7.45;;;23.60;99.90;;;;;;4994021;28;20038;-71
2023/09/26 10:26:49;;;;;;;8.40;6.88;;;23.20;99.90;;;;;;4994171;28;20453;-71
2023/09/26 10:29:14;;;;;;;;;;;23.10;99.90;;;;;;4994546;28;20038;-71
2023/09/26 10:31:53;;;;;;;9.38;6.65;;;23.00;99.90;;;;;;5010404;28;20446;-71
2023/09/26 10:34:28;;;;;;;9.32;6.28;;;23.00;99.90;;;;;;5011740;28;20508;-72
2023/09/26 10:36:56;;;;;;;9.10;6.13;;;23.50;99.90;;;;;;4993896;28;20057;-72
2023/09/26 10:39:37;;;;;;;9.70;6.90;;;23.40;99.90;;;;;;5010145;28;20052;-71
2023/09/26 10:42:16;;;;;;;10.20;6.72;;;23.50;99.90;;;;;;4997416;28;20129;-71
2023/09/26 10:44:43;;;;;;;9.50;6.30;;;23.70;99.90;;;;;;4997521;28;20049;-71
2023/09/26 10:47:11;;;;;;;8.25;5.65;;;23.60;99.90;;;;;;5015040;28;20374;-71
2023/09/26 10:49:37;;;;;;;8.50;6.00;;;23.60;99.90;;;;;;5013903;28;20049;-71
2023/09/26 10:52:03;;;;;;;10.73;5.47;;;24.20;99.90;;;;;;4997510;28;20503;-71
2023/09/26 10:54:30;;;;;;;8.07;5.88;;;;;;;;;;4997317;28;20125;-71
2023/09/26 10:57:00;;;;;;;9.75;5.97;;;23.10;99.90;;;;;;4997288;28;20524;-72
2023/09/26 10:59:29;;;;;;;8.43;5.05;;;23.50;99.90;;;;;;4997241;28;20049;-71
2023/09/26 11:01:59;;;;;;;10.05;5.65;;;23.50;99.90;;;;;;4981171;28;20037;-71
2023/09/26 11:04:31;;;;;;;11.77;6.35;;;23.70;99.90;;;;;;4997292;28;20509;-72
2023/09/26 11:06:58;;;;;;;10.50;6.28;;;23.70;99.90;;;;;;4997394;28;20463;-71
2023/09/26 11:09:24;;;;;;;14.13;6.30;;;23.30;99.90;;;;;;5013387;28;20041;-71
2023/09/26 11:11:50;;;;;;;8.43;5.10;;;23.60;99.90;;;;;;4997468;28;20429;-71
2023/09/26 11:14:16;;;;;;;12.75;6.20;;;23.90;99.90;;;;;;4997298;28;20089;-71
2023/09/26 11:16:43;;;;;;;11.52;5.60;;;23.80;99.90;;;;;;4997320;28;20089;-71
2023/09/26 11:19:12;;;;;;;11.82;6.25;;;24.00;99.90;;;;;;4996946;28;20129;-71
2023/09/26 11:21:38;;;;;;;7.88;5.35;;;24.00;99.90;;;;;;4981391;28;20041;-72
2023/09/26 11:24:19;;;;;;;9.63;5.38;;;24.10;99.90;;;;;;4999111;28;20037;-72
2023/09/26 11:26:45;;;;;;;10.95;6.60;;;24.20;99.90;;;;;;4998541;28;20512;-72
2023/09/26 11:29:12;;;;;;;10.25;5.40;;;24.00;99.90;;;;;;4981252;28;20037;-71
2023/09/26 11:31:38;;;;;;;7.75;5.63;;;24.20;99.90;;;;;;4997038;28;20484;-72
2023/09/26 11:34:04;;;;;;;10.40;5.80;;;24.00;99.90;;;;;;4996616;28;20042;-71
2023/09/26 11:36:31;;;;;;;7.18;5.35;;;24.10;99.90;;;;;;4996738;28;20060;-72
2023/09/26 11:38:59;;;;;;;18.00;5.43;;;24.20;99.90;;;;;;4996480;28;20041;-71
2023/09/26 11:41:25;;;;;;;8.15;5.20;;;24.10;99.90;;;;;;4997040;28;20466;-71
2023/09/26 11:43:52;;;;;;;12.55;5.47;;;24.00;99.90;;;;;;4996670;28;20526;-72
2023/09/26 11:46:18;;;;;;;9.32;5.15;;;24.00;99.90;;;;;;4996596;28;20061;-71
2023/09/26 11:48:46;;;;;;;5.15;4.22;;;24.00;99.90;;;;;;4996369;28;20405;-71
2023/09/26 11:51:13;;;;;;;8.35;5.00;;;24.20;99.90;;;;;;4996081;28;20136;-71
2023/09/26 11:53:40;;;;;;;8.50;5.07;;;24.50;99.90;;;;;;4996306;28;20128;-71
2023/09/26 11:56:09;;;;;;;8.18;5.05;;;24.40;99.90;;;;;;4996191;28;20501;-71
2023/09/26 11:58:36;;;;;;;9.43;5.28;;;24.40;99.90;;;;;;4996297;28;20375;-71
2023/09/26 12:01:02;;;;;;;9.02;5.20;;;24.40;99.90;;;;;;4996442;28;20092;-72
2023/09/26 12:03:28;;;;;;;11.05;5.15;;;24.50;99.90;;;;;;4996530;28;20049;-71
2023/09/26 12:05:53;;;;;;;7.10;4.32;;;24.50;99.90;;;;;;5014056;28;20549;-71
2023/09/26 12:08:19;;;;;;;8.95;5.30;;;24.70;99.90;;;;;;4996490;28;20088;-71
2023/09/26 12:10:45;;;;;;;6.60;4.25;;;25.20;99.90;;;;;;4996011;28;20092;-71
2023/09/26 12:13:10;;;;;;;5.93;4.45;;;25.00;99.90;;;;;;4996075;28;20046;-71
2023/09/26 12:15:36;;;;;;;7.57;5.15;;;25.20;99.90;;;;;;4995938;28;20041;-71
2023/09/26 12:18:02;;;;;;;7.55;5.38;;;25.10;99.90;;;;;;4996008;28;20085;-71
2023/09/26 12:20:29;;;;;;;12.43;4.75;;;25.40;99.90;;;;;;4995684;28;20413;-71
2023/09/26 12:22:56;;;;;;;9.07;4.72;;;25.50;99.90;;;;;;4995892;28;20074;-71
2023/09/26 12:25:23;;;;;;;6.15;4.43;;;25.40;99.90;;;;;;4996179;28;20502;-71
2023/09/26 12:27:52;;;;;;;8.00;5.10;;;25.70;99.90;;;;;;4979638;28;20049;-71
2023/09/26 12:30:19;;;;;;;9.05;5.20;;;25.30;99.90;;;;;;4995428;28;20046;-71
2023/09/26 12:32:45;;;;;;;8.45;4.78;;;25.50;99.90;;;;;;4995661;28;20073;-72
2023/09/26 12:35:11;;;;;;;10.20;4.90;;;25.40;99.90;;;;;;4995668;28;20128;-72
2023/09/26 12:37:37;;;;;;;8.98;5.38;;;25.40;99.90;;;;;;5013259;28;20454;-72
2023/09/26 12:40:12;;;;;;;6.93;4.70;;;25.00;99.90;;;;;;4995349;28;20041;-71
2023/09/26 12:42:38;;;;;;;7.43;4.20;;;25.10;99.90;;;;;;4979251;28;20639;-71
2023/09/26 12:45:06;;;;;;;9.38;4.57;;;25.30;99.90;;;;;;4996437;28;20045;-72